createdAt,value
2023-12-30T00:00:32.000Z,0.4
2023-12-30T00:01:47.431Z,0.3
2023-12-30T00:03:03.000Z,0.3
2023-12-30T00:04:20.017Z,0.3
2023-12-30T00:05:36.278Z,0.4
2023-12-30T00:06:52.564Z,0.3
2023-12-30T00:08:08.861Z,0.4
2023-12-30T00:09:25.211Z,0.5
2023-12-30T00:10:41.445Z,0.4
2023-12-30T00:11:57.790Z,0.3
2023-12-30T00:13:14.000Z,0.3
2023-12-30T00:14:30.000Z,0.4
2023-12-30T00:15:46.621Z,0.4
2023-12-30T00:17:02.953Z,0.4
2023-12-30T00:18:18.239Z,0.3
2023-12-30T00:19:34.559Z,0.5
2023-12-30T00:20:50.849Z,0.3
2023-12-30T00:22:07.153Z,0.3
2023-12-30T00:23:23.000Z,0.7
2023-12-30T00:24:39.690Z,0.3
2023-12-30T00:25:56.027Z,0.3
2023-12-30T00:27:12.331Z,0.6
2023-12-30T00:28:28.579Z,0.3
2023-12-30T00:29:44.875Z,1.5
2023-12-30T00:31:01.163Z,0.9
2023-12-30T00:32:17.492Z,0.9
2023-12-30T00:33:33.806Z,0.5
2023-12-30T00:34:49.107Z,2.1
2023-12-30T00:36:05.000Z,0.7
2023-12-30T00:37:21.684Z,0.5
2023-12-30T00:38:37.989Z,0.3
2023-12-30T00:39:54.233Z,0.3
2023-12-30T00:41:10.544Z,0.7
2023-12-30T00:42:25.853Z,0.4
2023-12-30T00:43:42.000Z,0.3
2023-12-30T00:44:58.000Z,0.5
2023-12-30T00:46:14.000Z,0.4
2023-12-30T00:47:31.064Z,0.4
2023-12-30T00:48:47.360Z,0.5
2023-12-30T00:50:03.653Z,0.4
2023-12-30T00:51:19.943Z,0.5
2023-12-30T00:52:36.249Z,0.3
2023-12-30T00:53:52.534Z,0.4
2023-12-30T00:55:08.827Z,0.4
2023-12-30T00:56:25.120Z,0.5
2023-12-30T00:57:41.412Z,0.5
2023-12-30T00:58:57.000Z,0.4
2023-12-30T01:00:14.077Z,0.5
2023-12-30T01:01:30.410Z,0.5
2023-12-30T01:02:46.703Z,0.5
2023-12-30T01:04:03.003Z,0.5
2023-12-30T01:05:19.289Z,0.4
2023-12-30T01:06:35.544Z,0.4
2023-12-30T01:07:51.000Z,0.5
2023-12-30T01:09:08.168Z,0.4
2023-12-30T01:10:24.429Z,0.4
2023-12-30T01:11:40.000Z,0.5
2023-12-30T01:12:57.051Z,0.4
2023-12-30T01:14:13.348Z,0.4
2023-12-30T01:15:28.648Z,0.4
2023-12-30T01:16:44.000Z,0.5
2023-12-30T01:18:01.000Z,0.5
2023-12-30T01:19:17.533Z,0.4
2023-12-30T01:20:33.826Z,0.4
2023-12-30T01:21:50.000Z,0.3
2023-12-30T01:23:06.418Z,0.3
2023-12-30T01:24:22.714Z,0.4
2023-12-30T01:25:39.003Z,0.6
2023-12-30T01:26:55.295Z,0.7
2023-12-30T01:28:11.594Z,0.5
2023-12-30T01:29:27.895Z,0.6
2023-12-30T01:30:44.180Z,1
2023-12-30T01:31:59.482Z,0.4
2023-12-30T01:33:15.776Z,0.4
2023-12-30T01:34:32.083Z,0.6
2023-12-30T01:35:48.378Z,0.5
2023-12-30T01:37:04.000Z,0.4
2023-12-30T01:38:20.905Z,0.4
2023-12-30T01:39:37.205Z,0.4
2023-12-30T01:40:53.548Z,0.5
2023-12-30T01:42:09.793Z,0.5
2023-12-30T01:43:26.135Z,0.4
2023-12-30T01:44:42.414Z,0.7
2023-12-30T01:45:58.713Z,0.5
2023-12-30T01:47:15.000Z,0.4
2023-12-30T01:48:31.423Z,0.6
2023-12-30T01:49:47.000Z,0.5
2023-12-30T01:51:03.974Z,0.4
2023-12-30T01:52:20.263Z,0.4
2023-12-30T01:53:36.595Z,0.5
2023-12-30T01:54:52.000Z,0.4
2023-12-30T01:56:09.187Z,0.4
2023-12-30T01:57:25.000Z,0.4
2023-12-30T01:58:41.723Z,0.5
2023-12-30T01:59:58.000Z,0.5
2023-12-30T02:01:14.363Z,0.5
2023-12-30T02:02:30.660Z,0.4
2023-12-30T02:03:46.941Z,1.2
2023-12-30T02:05:02.259Z,0.4
2023-12-30T02:06:18.550Z,0.8
2023-12-30T02:07:34.000Z,0.4
2023-12-30T02:08:51.133Z,0.4
2023-12-30T02:10:07.423Z,0.4
2023-12-30T02:11:23.674Z,0.4
2023-12-30T02:12:40.000Z,0.4
2023-12-30T02:13:56.309Z,0.4
2023-12-30T02:15:12.599Z,0.4
2023-12-30T02:16:28.901Z,0.6
2023-12-30T02:17:45.148Z,0.5
2023-12-30T02:19:01.491Z,0.4
2023-12-30T02:20:17.778Z,0.4
2023-12-30T02:21:33.040Z,0.4
2023-12-30T02:22:49.378Z,0.4
2023-12-30T02:24:05.000Z,0.4
2023-12-30T02:25:21.000Z,0.4
2023-12-30T02:26:38.266Z,0.5
2023-12-30T02:27:54.554Z,0.4
2023-12-30T02:29:10.857Z,0.5
2023-12-30T02:30:27.000Z,0.5
2023-12-30T02:31:43.436Z,0.5
2023-12-30T02:32:59.688Z,0.4
2023-12-30T02:34:16.029Z,0.5
2023-12-30T02:35:32.000Z,0.4
2023-12-30T02:36:48.560Z,0.5
2023-12-30T02:38:04.981Z,0.5
2023-12-30T02:39:21.332Z,0.7
2023-12-30T02:40:37.000Z,0.4
2023-12-30T02:41:53.908Z,0.5
2023-12-30T02:43:10.000Z,0.5
2023-12-30T02:44:26.000Z,0.4
2023-12-30T02:45:42.000Z,0.4
2023-12-30T02:46:59.038Z,0.4
2023-12-30T02:48:15.323Z,0.4
2023-12-30T02:49:31.672Z,0.4
2023-12-30T02:50:47.000Z,0.5
2023-12-30T02:52:04.000Z,0.4
2023-12-30T02:53:20.000Z,0.6
2023-12-30T02:54:35.000Z,0.8
2023-12-30T02:55:52.000Z,0.5
2023-12-30T02:57:08.445Z,0.6
2023-12-30T02:58:24.743Z,0.5
2023-12-30T02:59:41.000Z,0.5
2023-12-30T03:00:57.274Z,0.5
2023-12-30T03:02:13.612Z,0.5
2023-12-30T03:03:29.000Z,0.5
2023-12-30T03:04:46.156Z,0.5
2023-12-30T03:06:02.000Z,0.5
2023-12-30T03:07:18.789Z,0.5
2023-12-30T03:08:35.038Z,0.5
2023-12-30T03:09:51.000Z,0.5
2023-12-30T03:11:06.000Z,0.5
2023-12-30T03:12:22.000Z,0.5
2023-12-30T03:13:39.000Z,0.5
2023-12-30T03:14:55.000Z,0.5
2023-12-30T03:16:11.000Z,0.6
2023-12-30T03:17:28.000Z,0.5
2023-12-30T03:18:44.451Z,0.8
2023-12-30T03:20:00.743Z,0.5
2023-12-30T03:21:17.000Z,0.5
2023-12-30T03:22:33.283Z,0.5
2023-12-30T03:23:49.000Z,0.3
2023-12-30T03:25:05.000Z,0.4
2023-12-30T03:26:22.000Z,0.4
2023-12-30T03:27:37.529Z,0.5
2023-12-30T03:28:53.820Z,0.5
2023-12-30T03:30:10.111Z,0.6
2023-12-30T03:31:26.409Z,0.4
2023-12-30T03:32:42.000Z,0.4
2023-12-30T03:33:58.000Z,0.6
2023-12-30T03:35:15.231Z,0.5
2023-12-30T03:36:31.000Z,0.6
2023-12-30T03:37:47.875Z,0.5
2023-12-30T03:39:04.114Z,0.5
2023-12-30T03:40:20.466Z,0.4
2023-12-30T03:41:36.000Z,1.1
2023-12-30T03:42:52.999Z,0.6
2023-12-30T03:44:08.000Z,0.5
2023-12-30T03:45:24.000Z,0.6
2023-12-30T03:46:40.000Z,0.5
2023-12-30T03:47:57.186Z,0.6
2023-12-30T03:49:13.000Z,0.5
2023-12-30T03:50:29.777Z,0.6
2023-12-30T03:51:46.063Z,0.6
2023-12-30T03:53:02.364Z,0.8
2023-12-30T03:54:18.000Z,0.5
2023-12-30T03:55:34.989Z,0.5
2023-12-30T03:56:51.000Z,0.5
2023-12-30T03:58:07.583Z,0.5
2023-12-30T03:59:23.000Z,0.6
2023-12-30T04:00:39.000Z,0.9
2023-12-30T04:01:55.487Z,0.6
2023-12-30T04:03:11.726Z,0.4
2023-12-30T04:04:28.017Z,0.5
2023-12-30T04:05:44.312Z,0.5
2023-12-30T04:07:00.614Z,1
2023-12-30T04:08:16.939Z,0.5
2023-12-30T04:09:33.000Z,0.5
2023-12-30T04:10:49.534Z,0.5
2023-12-30T04:12:05.832Z,0.6
2023-12-30T04:13:22.120Z,0.6
2023-12-30T04:14:38.000Z,0.6
2023-12-30T04:15:54.702Z,0.5
2023-12-30T04:17:09.965Z,0.5
2023-12-30T04:18:26.304Z,0.7
2023-12-30T04:19:42.000Z,0.5
2023-12-30T04:20:58.891Z,0.8
2023-12-30T04:22:15.000Z,0.5
2023-12-30T04:23:31.495Z,0.7
2023-12-30T04:24:47.788Z,0.5
2023-12-30T04:26:04.017Z,0.5
2023-12-30T04:27:20.313Z,0.5
2023-12-30T04:28:36.672Z,0.5
2023-12-30T04:29:52.000Z,0.4
2023-12-30T04:31:09.243Z,0.9
2023-12-30T04:32:25.486Z,0.4
2023-12-30T04:33:40.795Z,0.6
2023-12-30T04:34:57.148Z,0.5
2023-12-30T04:36:13.438Z,0.5
2023-12-30T04:37:29.728Z,0.5
2023-12-30T04:38:46.019Z,0.5
2023-12-30T04:40:02.000Z,0.5
2023-12-30T04:41:18.000Z,0.6
2023-12-30T04:42:34.900Z,0.5
2023-12-30T04:43:51.154Z,0.5
2023-12-30T04:45:07.447Z,0.8
2023-12-30T04:46:23.791Z,0.8
2023-12-30T04:47:40.000Z,0.6
2023-12-30T04:48:56.382Z,0.5
2023-12-30T04:50:11.689Z,0.5
2023-12-30T04:51:27.977Z,0.5
2023-12-30T04:52:44.000Z,0.5
2023-12-30T04:54:00.559Z,0.6
2023-12-30T04:55:16.810Z,0.6
2023-12-30T04:56:33.149Z,0.6
2023-12-30T04:57:48.460Z,0.4
2023-12-30T04:59:04.755Z,0.4
2023-12-30T05:00:21.061Z,0.4
2023-12-30T05:01:37.000Z,0.5
2023-12-30T05:02:53.000Z,0.5
2023-12-30T05:04:09.927Z,0.4
2023-12-30T05:05:26.220Z,0.5
2023-12-30T05:06:42.517Z,0.4
2023-12-30T05:07:58.821Z,0.4
2023-12-30T05:09:15.119Z,0.4
2023-12-30T05:10:31.000Z,0.4
2023-12-30T05:11:47.700Z,0.5
2023-12-30T05:13:03.000Z,0.4
2023-12-30T05:14:19.302Z,0.6
2023-12-30T05:15:35.000Z,0.5
2023-12-30T05:16:51.881Z,0.5
2023-12-30T05:18:08.185Z,0.6
2023-12-30T05:19:24.475Z,0.5
2023-12-30T05:20:40.000Z,0.4
2023-12-30T05:21:57.000Z,0.5
2023-12-30T05:23:13.000Z,0.4
2023-12-30T05:24:29.658Z,0.5
2023-12-30T05:25:45.000Z,0.5
2023-12-30T05:27:02.228Z,0.4
2023-12-30T05:28:18.487Z,0.5
2023-12-30T05:29:34.764Z,0.5
2023-12-30T05:30:50.091Z,0.5
2023-12-30T05:32:06.000Z,0.5
2023-12-30T05:33:22.000Z,1
2023-12-30T05:34:39.000Z,0.5
2023-12-30T05:35:55.000Z,0.3
2023-12-30T05:37:11.000Z,0.5
2023-12-30T05:38:27.898Z,0.5
2023-12-30T05:39:44.188Z,0.5
2023-12-30T05:41:00.433Z,0.4
2023-12-30T05:42:16.779Z,0.4
2023-12-30T05:43:33.009Z,0.4
2023-12-30T05:44:49.000Z,0.4
2023-12-30T05:46:05.662Z,0.4
2023-12-30T05:47:20.955Z,0.5
2023-12-30T05:48:37.000Z,0.6
2023-12-30T05:49:53.548Z,0.5
2023-12-30T05:51:09.788Z,0.4
2023-12-30T05:52:26.081Z,0.7
2023-12-30T05:53:42.000Z,0.5
2023-12-30T05:54:58.718Z,0.4
2023-12-30T05:56:15.000Z,0.5
2023-12-30T05:57:31.000Z,0.5
2023-12-30T05:58:47.550Z,0.4
2023-12-30T06:00:03.901Z,1.1
2023-12-30T06:01:20.190Z,0.5
2023-12-30T06:02:36.490Z,0.5
2023-12-30T06:03:51.000Z,0.6
2023-12-30T06:05:08.087Z,0.7
2023-12-30T06:06:24.334Z,0.9
2023-12-30T06:07:40.672Z,0.4
2023-12-30T06:08:56.000Z,0.5
2023-12-30T06:10:13.266Z,0.5
2023-12-30T06:11:29.562Z,0.5
2023-12-30T06:12:45.851Z,0.5
2023-12-30T06:14:02.089Z,0.6
2023-12-30T06:15:18.446Z,0.4
2023-12-30T06:16:34.726Z,0.6
2023-12-30T06:17:51.000Z,0.5
2023-12-30T06:19:07.000Z,0.4
2023-12-30T06:20:23.731Z,1.2
2023-12-30T06:21:40.023Z,0.5
2023-12-30T06:22:56.266Z,0.7
2023-12-30T06:24:12.620Z,0.6
2023-12-30T06:25:28.851Z,0.6
2023-12-30T06:26:45.000Z,0.6
2023-12-30T06:28:01.493Z,0.4
2023-12-30T06:29:17.000Z,0.5
2023-12-30T06:30:34.044Z,0.7
2023-12-30T06:31:50.344Z,0.6
2023-12-30T06:33:06.000Z,0.5
2023-12-30T06:34:22.000Z,0.6
2023-12-30T06:35:39.266Z,0.6
2023-12-30T06:36:54.000Z,0.5
2023-12-30T06:38:10.858Z,0.6
2023-12-30T06:39:27.000Z,0.5
2023-12-30T06:40:43.445Z,0.6
2023-12-30T06:41:59.656Z,0.5
2023-12-30T06:43:15.889Z,0.6
2023-12-30T06:44:32.000Z,0.6
2023-12-30T06:45:48.000Z,0.6
2023-12-30T06:47:04.609Z,0.5
2023-12-30T06:48:20.877Z,0.5
2023-12-30T06:49:37.000Z,0.6
2023-12-30T06:50:53.364Z,0.6
2023-12-30T06:52:09.569Z,0.5
2023-12-30T06:53:24.825Z,1
2023-12-30T06:54:41.000Z,0.5
2023-12-30T06:55:57.000Z,0.5
2023-12-30T06:57:13.000Z,0.5
2023-12-30T06:58:29.000Z,1
2023-12-30T06:59:46.000Z,0.5
2023-12-30T07:01:02.000Z,0.5
2023-12-30T07:02:18.000Z,0.5
2023-12-30T07:03:34.775Z,0.6
2023-12-30T07:04:51.025Z,1.6
2023-12-30T07:06:07.000Z,0.5
2023-12-30T07:07:23.000Z,0.7
2023-12-30T07:08:39.000Z,0.6
2023-12-30T07:09:54.000Z,1.1
2023-12-30T07:11:11.000Z,0.6
2023-12-30T07:12:27.000Z,0.8
2023-12-30T07:13:43.000Z,0.6
2023-12-30T07:14:59.939Z,0.7
2023-12-30T07:16:16.180Z,1.2
2023-12-30T07:17:32.000Z,1.1
2023-12-30T07:18:48.000Z,1.5
2023-12-30T07:20:04.000Z,1.1
2023-12-30T07:21:21.000Z,0.7
2023-12-30T07:22:37.000Z,0.8
2023-12-30T07:23:53.000Z,0.6
2023-12-30T07:25:09.825Z,0.5
2023-12-30T07:26:25.087Z,0.5
2023-12-30T07:27:41.367Z,0.5
2023-12-30T07:28:57.000Z,0.4
2023-12-30T07:30:13.000Z,0.7
2023-12-30T07:31:30.000Z,0.5
2023-12-30T07:32:46.000Z,0.5
2023-12-30T07:34:02.000Z,0.6
2023-12-30T07:35:18.000Z,0.5
2023-12-30T07:36:35.038Z,0.6
2023-12-30T07:37:51.245Z,0.5
2023-12-30T07:39:07.000Z,0.5
2023-12-30T07:40:23.725Z,1.5
2023-12-30T07:41:39.000Z,0.9
2023-12-30T07:42:55.000Z,0.7
2023-12-30T07:44:11.000Z,0.6
2023-12-30T07:45:27.000Z,0.6
2023-12-30T07:46:43.943Z,1.2
2023-12-30T07:48:00.217Z,0.5
2023-12-30T07:49:16.000Z,0.8
2023-12-30T07:50:32.000Z,0.6
2023-12-30T07:51:48.000Z,0.7
2023-12-30T07:53:05.000Z,0.6
2023-12-30T07:54:21.000Z,0.6
2023-12-30T07:55:37.000Z,0.6
2023-12-30T07:56:53.000Z,0.7
2023-12-30T07:58:10.119Z,0.6
2023-12-30T07:59:25.374Z,0.7
2023-12-30T08:00:41.600Z,0.7
2023-12-30T08:01:57.853Z,0.7
2023-12-30T08:03:14.000Z,0.7
2023-12-30T08:04:30.000Z,0.7
2023-12-30T08:05:46.000Z,0.7
2023-12-30T08:07:02.000Z,0.5
2023-12-30T08:08:19.000Z,0.9
2023-12-30T08:09:35.262Z,0.6
2023-12-30T08:10:51.503Z,0.6
2023-12-30T08:12:07.787Z,1
2023-12-30T08:13:24.000Z,0.6
2023-12-30T08:14:40.000Z,0.8
2023-12-30T08:15:55.474Z,0.7
2023-12-30T08:17:11.000Z,0.6
2023-12-30T08:18:27.967Z,1.2
2023-12-30T08:19:44.000Z,0.9
2023-12-30T08:21:00.435Z,0.6
2023-12-30T08:22:16.719Z,0.6
2023-12-30T08:23:32.947Z,0.9
2023-12-30T08:24:49.186Z,0.8
2023-12-30T08:26:05.000Z,0.7
2023-12-30T08:27:21.000Z,0.7
2023-12-30T08:28:37.000Z,0.7
2023-12-30T08:29:54.000Z,0.7
2023-12-30T08:31:10.000Z,0.7
2023-12-30T08:32:25.651Z,0.7
2023-12-30T08:33:41.000Z,0.9
2023-12-30T08:34:58.087Z,0.9
2023-12-30T08:36:14.334Z,0.6
2023-12-30T08:37:30.000Z,0.5
2023-12-30T08:38:46.000Z,0.6
2023-12-30T08:40:03.085Z,0.9
2023-12-30T08:41:19.285Z,0.8
2023-12-30T08:42:35.000Z,0.7
2023-12-30T08:43:51.000Z,1.2
2023-12-30T08:45:08.040Z,0.6
2023-12-30T08:46:24.288Z,0.6
2023-12-30T08:47:40.000Z,0.6
2023-12-30T08:48:55.000Z,1
2023-12-30T08:50:12.000Z,1
2023-12-30T08:51:28.000Z,0.8
2023-12-30T08:52:44.508Z,1
2023-12-30T08:54:00.000Z,0.6
2023-12-30T08:55:16.954Z,0.8
2023-12-30T08:56:33.207Z,0.5
2023-12-30T08:57:49.454Z,1
2023-12-30T08:59:05.000Z,0.7
2023-12-30T09:00:21.000Z,0.7
2023-12-30T09:01:38.000Z,0.8
2023-12-30T09:02:54.413Z,0.9
2023-12-30T09:04:10.000Z,0.6
2023-12-30T09:05:26.000Z,0.6
2023-12-30T09:06:42.000Z,0.6
2023-12-30T09:07:58.398Z,0.7
2023-12-30T09:09:14.591Z,2.9
2023-12-30T09:10:30.000Z,0.6
2023-12-30T09:11:47.000Z,0.9
2023-12-30T09:13:02.000Z,0.9
2023-12-30T09:14:18.000Z,1.1
2023-12-30T09:15:34.000Z,1.1
2023-12-30T09:16:51.000Z,1
2023-12-30T09:18:07.303Z,0.7
2023-12-30T09:19:23.563Z,0.6
2023-12-30T09:20:39.818Z,0.6
2023-12-30T09:21:56.000Z,1
2023-12-30T09:23:12.252Z,0.6
2023-12-30T09:24:28.000Z,0.6
2023-12-30T09:25:44.766Z,0.9
2023-12-30T09:27:01.000Z,2.1
2023-12-30T09:28:17.235Z,0.8
2023-12-30T09:29:32.492Z,0.6
2023-12-30T09:30:48.736Z,0.6
2023-12-30T09:32:04.000Z,0.6
2023-12-30T09:33:21.000Z,0.7
2023-12-30T09:34:37.000Z,0.5
2023-12-30T09:35:53.000Z,0.5
2023-12-30T09:37:09.000Z,1.1
2023-12-30T09:38:26.000Z,0.6
2023-12-30T09:39:42.375Z,0.6
2023-12-30T09:40:58.652Z,0.5
2023-12-30T09:42:14.000Z,0.5
2023-12-30T09:43:31.000Z,0.6
2023-12-30T09:44:47.000Z,0.7
2023-12-30T09:46:02.000Z,1
2023-12-30T09:47:18.000Z,0.6
2023-12-30T09:48:35.000Z,0.6
2023-12-30T09:49:51.000Z,0.6
2023-12-30T09:51:07.588Z,0.5
2023-12-30T09:52:23.789Z,0.5
2023-12-30T09:53:40.000Z,0.6
2023-12-30T09:54:56.000Z,0.6
2023-12-30T09:56:12.000Z,0.7
2023-12-30T09:57:28.000Z,1
2023-12-30T09:58:45.000Z,1.1
2023-12-30T10:00:01.256Z,0.6
2023-12-30T10:01:17.464Z,0.5
2023-12-30T10:02:32.759Z,0.5
2023-12-30T10:03:48.995Z,0.5
2023-12-30T10:05:05.000Z,0.6
2023-12-30T10:06:21.000Z,0.8
2023-12-30T10:07:37.000Z,0.7
2023-12-30T10:08:53.000Z,1
2023-12-30T10:10:10.000Z,0.5
2023-12-30T10:11:26.000Z,0.5
2023-12-30T10:12:42.684Z,0.6
2023-12-30T10:13:58.909Z,0.6
2023-12-30T10:15:15.160Z,0.6
2023-12-30T10:16:31.000Z,0.5
2023-12-30T10:17:47.000Z,0.8
2023-12-30T10:19:02.000Z,0.9
2023-12-30T10:20:19.000Z,0.6
2023-12-30T10:21:35.000Z,1.3
2023-12-30T10:22:51.000Z,0.6
2023-12-30T10:24:07.855Z,0.8
2023-12-30T10:25:24.051Z,0.5
2023-12-30T10:26:40.330Z,0.8
2023-12-30T10:27:56.000Z,0.7
2023-12-30T10:29:12.000Z,0.6
2023-12-30T10:30:29.000Z,0.6
2023-12-30T10:31:45.000Z,0.6
2023-12-30T10:33:01.000Z,0.5
2023-12-30T10:34:17.726Z,0.5
2023-12-30T10:35:33.993Z,0.5
2023-12-30T10:36:49.249Z,0.6
2023-12-30T10:38:05.000Z,0.6
2023-12-30T10:39:21.000Z,0.5
2023-12-30T10:40:37.000Z,0.7
2023-12-30T10:41:54.000Z,0.5
2023-12-30T10:43:10.000Z,1
2023-12-30T10:44:26.000Z,0.7
2023-12-30T10:45:42.929Z,0.7
2023-12-30T10:46:59.164Z,0.5
2023-12-30T10:48:15.000Z,0.5
2023-12-30T10:49:31.000Z,0.5
2023-12-30T10:50:47.000Z,0.7
2023-12-30T10:52:04.000Z,0.5
2023-12-30T10:53:19.000Z,0.6
2023-12-30T10:54:35.595Z,0.5
2023-12-30T10:55:51.000Z,0.5
2023-12-30T10:57:08.000Z,0.5
2023-12-30T10:58:24.343Z,0.8
2023-12-30T10:59:40.578Z,0.5
2023-12-30T11:00:56.000Z,1
2023-12-30T11:02:13.000Z,0.5
2023-12-30T11:03:29.000Z,0.5
2023-12-30T11:04:45.521Z,1.2
2023-12-30T11:06:01.000Z,0.7
2023-12-30T11:07:18.000Z,0.5
2023-12-30T11:08:34.227Z,0.6
2023-12-30T11:09:49.485Z,0.7
2023-12-30T11:11:05.722Z,0.5
2023-12-30T11:12:21.968Z,1.1
2023-12-30T11:13:38.000Z,0.8
2023-12-30T11:14:54.000Z,1.6
2023-12-30T11:16:10.674Z,0.5
2023-12-30T11:17:26.000Z,0.5
2023-12-30T11:18:43.000Z,0.7
2023-12-30T11:19:59.404Z,0.9
2023-12-30T11:21:15.636Z,1
2023-12-30T11:22:31.872Z,0.5
2023-12-30T11:23:48.000Z,0.6
2023-12-30T11:25:04.000Z,0.6
2023-12-30T11:26:19.000Z,1
2023-12-30T11:27:35.866Z,0.6
2023-12-30T11:28:52.000Z,0.6
2023-12-30T11:30:08.334Z,0.5
2023-12-30T11:31:24.576Z,0.5
2023-12-30T11:32:40.825Z,0.5
2023-12-30T11:33:57.000Z,0.4
2023-12-30T11:35:13.000Z,0.5
2023-12-30T11:36:29.000Z,0.5
2023-12-30T11:37:45.000Z,0.5
2023-12-30T11:39:02.000Z,0.5
2023-12-30T11:40:18.000Z,0.4
2023-12-30T11:41:34.499Z,0.5
2023-12-30T11:42:49.760Z,0.5
2023-12-30T11:44:05.988Z,0.5
2023-12-30T11:45:22.000Z,0.4
2023-12-30T11:46:38.000Z,0.4
2023-12-30T11:47:54.000Z,0.5
2023-12-30T11:49:10.955Z,0.6
2023-12-30T11:50:27.186Z,0.6
2023-12-30T11:51:43.000Z,0.7
2023-12-30T11:52:59.672Z,0.6
2023-12-30T11:54:15.898Z,0.5
2023-12-30T11:55:32.142Z,0.5
2023-12-30T11:56:48.000Z,2.9
2023-12-30T11:58:04.640Z,0.4
2023-12-30T11:59:19.000Z,0.5
2023-12-30T12:00:36.000Z,0.5
2023-12-30T12:01:52.000Z,0.6
2023-12-30T12:03:08.609Z,0.6
2023-12-30T12:04:24.834Z,0.5
2023-12-30T12:05:41.072Z,0.9
2023-12-30T12:06:57.000Z,0.5
2023-12-30T12:08:13.000Z,0.6
2023-12-30T12:09:29.000Z,0.6
2023-12-30T12:10:46.000Z,0.5
2023-12-30T12:12:02.000Z,0.8
2023-12-30T12:13:18.000Z,0.7
2023-12-30T12:14:34.000Z,0.9
2023-12-30T12:15:50.020Z,0.6
2023-12-30T12:17:06.244Z,0.5
2023-12-30T12:18:22.000Z,0.5
2023-12-30T12:19:38.000Z,0.5
2023-12-30T12:20:54.970Z,0.6
2023-12-30T12:22:11.000Z,0.6
2023-12-30T12:23:27.000Z,0.5
2023-12-30T12:24:43.000Z,0.6
2023-12-30T12:25:59.000Z,0.5
2023-12-30T12:27:16.166Z,0.7
2023-12-30T12:28:32.417Z,0.9
2023-12-30T12:29:48.655Z,0.5
2023-12-30T12:31:04.000Z,0.7
2023-12-30T12:32:20.147Z,0.6
2023-12-30T12:33:36.387Z,0.8
2023-12-30T12:34:52.611Z,0.5
2023-12-30T12:36:08.000Z,0.8
2023-12-30T12:37:25.000Z,0.6
2023-12-30T12:38:41.348Z,0.6
2023-12-30T12:39:57.581Z,0.5
2023-12-30T12:41:13.825Z,0.7
2023-12-30T12:42:30.000Z,0.8
2023-12-30T12:43:46.294Z,0.4
2023-12-30T12:45:02.000Z,0.5
2023-12-30T12:46:18.000Z,1
2023-12-30T12:47:35.000Z,0.9
2023-12-30T12:48:50.276Z,0.7
2023-12-30T12:50:06.530Z,0.6
2023-12-30T12:51:22.766Z,0.7
2023-12-30T12:52:39.000Z,0.5
2023-12-30T12:53:55.000Z,0.5
2023-12-30T12:55:11.000Z,0.7
2023-12-30T12:56:27.700Z,0.7
2023-12-30T12:57:43.000Z,0.7
2023-12-30T12:59:00.197Z,0.6
2023-12-30T13:00:16.419Z,0.6
2023-12-30T13:01:32.662Z,0.7
2023-12-30T13:02:48.000Z,0.5
2023-12-30T13:04:05.162Z,0.5
2023-12-30T13:05:20.000Z,0.7
2023-12-30T13:06:36.655Z,0.4
2023-12-30T13:07:52.000Z,0.9
2023-12-30T13:09:09.000Z,0.3
2023-12-30T13:10:25.000Z,0.7
2023-12-30T13:11:41.611Z,0.5
2023-12-30T13:12:57.830Z,0.5
2023-12-30T13:14:14.000Z,0.5
2023-12-30T13:15:30.000Z,0.6
2023-12-30T13:16:46.000Z,0.6
2023-12-30T13:18:02.801Z,0.4
2023-12-30T13:19:19.038Z,0.5
2023-12-30T13:20:35.282Z,0.6
2023-12-30T13:21:50.000Z,0.6
2023-12-30T13:23:06.780Z,0.4
2023-12-30T13:24:23.023Z,0.6
2023-12-30T13:25:39.000Z,0.7
2023-12-30T13:26:55.000Z,0.6
2023-12-30T13:28:10.000Z,0.5
2023-12-30T13:29:27.000Z,0.5
2023-12-30T13:30:43.000Z,0.4
2023-12-30T13:31:59.000Z,0.6
2023-12-30T13:33:15.000Z,0.4
2023-12-30T13:34:31.956Z,0.4
2023-12-30T13:35:48.180Z,0.6
2023-12-30T13:37:04.422Z,0.6
2023-12-30T13:38:20.665Z,0.6
2023-12-30T13:39:36.000Z,0.6
2023-12-30T13:40:53.143Z,0.4
2023-12-30T13:42:09.387Z,0.7
2023-12-30T13:43:25.000Z,0.3
2023-12-30T13:44:40.894Z,0.4
2023-12-30T13:45:57.139Z,0.5
2023-12-30T13:47:13.367Z,0.4
2023-12-30T13:48:29.000Z,0.4
2023-12-30T13:49:45.000Z,0.4
2023-12-30T13:51:02.000Z,0.4
2023-12-30T13:52:18.000Z,0.4
2023-12-30T13:53:34.000Z,0.4
2023-12-30T13:54:50.812Z,0.5
2023-12-30T13:56:07.045Z,0.8
2023-12-30T13:57:23.288Z,0.4
2023-12-30T13:58:39.000Z,0.5
2023-12-30T13:59:55.000Z,1
2023-12-30T14:01:11.000Z,0.6
2023-12-30T14:02:27.000Z,0.7
2023-12-30T14:03:43.000Z,0.6
2023-12-30T14:04:59.000Z,0.5
2023-12-30T14:06:15.978Z,0.5
2023-12-30T14:07:32.208Z,0.8
2023-12-30T14:08:48.453Z,0.6
2023-12-30T14:10:04.000Z,0.6
2023-12-30T14:11:20.000Z,0.6
2023-12-30T14:12:37.178Z,0.6
2023-12-30T14:13:53.423Z,0.5
2023-12-30T14:15:09.000Z,0.5
2023-12-30T14:16:25.000Z,0.5
2023-12-30T14:17:41.134Z,0.5
2023-12-30T14:18:57.382Z,0.5
2023-12-30T14:20:13.615Z,0.8
2023-12-30T14:21:29.000Z,0.6
2023-12-30T14:22:46.000Z,0.6
2023-12-30T14:24:02.000Z,0.9
2023-12-30T14:25:18.000Z,0.8
2023-12-30T14:26:34.815Z,0.6
2023-12-30T14:27:51.064Z,0.5
2023-12-30T14:29:07.308Z,0.7
2023-12-30T14:30:23.000Z,0.6
2023-12-30T14:31:39.000Z,0.4
2023-12-30T14:32:56.028Z,1.1
2023-12-30T14:34:11.000Z,0.5
2023-12-30T14:35:27.000Z,0.4
2023-12-30T14:36:43.752Z,0.4
2023-12-30T14:38:00.003Z,0.5
2023-12-30T14:39:16.242Z,0.8
2023-12-30T14:40:32.485Z,0.5
2023-12-30T14:41:48.000Z,0.7
2023-12-30T14:43:04.000Z,0.8
2023-12-30T14:44:21.000Z,0.5
2023-12-30T14:45:37.000Z,0.5
2023-12-30T14:46:53.000Z,0.5
2023-12-30T14:48:09.000Z,0.5
2023-12-30T14:49:26.157Z,0.6
2023-12-30T14:50:41.423Z,1.3
2023-12-30T14:51:57.639Z,2.2
2023-12-30T14:53:13.895Z,0.3
2023-12-30T14:54:30.140Z,0.4
2023-12-30T14:55:46.000Z,0.5
2023-12-30T14:57:02.000Z,0.7
2023-12-30T14:58:18.861Z,0.5
2023-12-30T14:59:35.000Z,0.6
2023-12-30T15:00:51.325Z,0.9
2023-12-30T15:02:07.580Z,0.6
2023-12-30T15:03:23.000Z,0.9
2023-12-30T15:04:40.000Z,0.6
2023-12-30T15:05:56.288Z,0.5
2023-12-30T15:07:11.000Z,0.5
2023-12-30T15:08:27.000Z,0.8
2023-12-30T15:09:44.000Z,0.6
2023-12-30T15:11:00.264Z,0.5
2023-12-30T15:12:16.490Z,0.6
2023-12-30T15:13:32.740Z,1
2023-12-30T15:14:49.000Z,0.6
2023-12-30T15:16:05.000Z,0.7
2023-12-30T15:17:21.000Z,0.8
2023-12-30T15:18:37.000Z,0.4
2023-12-30T15:19:53.000Z,0.9
2023-12-30T15:21:10.000Z,0.5
2023-12-30T15:22:26.419Z,0.7
2023-12-30T15:23:41.682Z,0.5
2023-12-30T15:24:57.000Z,0.6
2023-12-30T15:26:14.000Z,0.6
2023-12-30T15:27:30.000Z,0.7
2023-12-30T15:28:46.000Z,0.6
2023-12-30T15:30:02.878Z,1.1
2023-12-30T15:31:19.000Z,0.5
2023-12-30T15:32:35.349Z,0.5
2023-12-30T15:33:51.587Z,0.4
2023-12-30T15:35:07.820Z,0.8
2023-12-30T15:36:24.069Z,0.5
2023-12-30T15:37:40.000Z,0.6
2023-12-30T15:38:56.544Z,0.6
2023-12-30T15:40:11.000Z,0.7
2023-12-30T15:41:28.000Z,0.6
2023-12-30T15:42:44.000Z,0.5
2023-12-30T15:44:00.537Z,0.8
2023-12-30T15:45:16.764Z,0.5
2023-12-30T15:46:33.045Z,0.5
2023-12-30T15:47:49.000Z,0.5
2023-12-30T15:49:05.000Z,0.6
2023-12-30T15:50:21.000Z,0.7
2023-12-30T15:51:38.215Z,0.6
2023-12-30T15:52:54.000Z,0.5
2023-12-30T15:54:10.819Z,1.6
2023-12-30T15:55:27.108Z,0.6
2023-12-30T15:56:42.410Z,0.4
2023-12-30T15:57:58.000Z,0.7
2023-12-30T15:59:15.000Z,0.7
2023-12-30T16:00:31.000Z,0.9
2023-12-30T16:01:47.000Z,1.1
2023-12-30T16:03:03.000Z,0.6
2023-12-30T16:04:20.000Z,0.7
2023-12-30T16:05:36.000Z,0.5
2023-12-30T16:06:52.776Z,0.6
2023-12-30T16:08:09.069Z,0.9
2023-12-30T16:09:25.000Z,0.8
2023-12-30T16:10:41.000Z,0.7
2023-12-30T16:11:57.941Z,0.7
2023-12-30T16:13:13.000Z,1
2023-12-30T16:14:29.000Z,0.7
2023-12-30T16:15:45.000Z,1
2023-12-30T16:17:02.139Z,0.6
2023-12-30T16:18:18.409Z,0.9
2023-12-30T16:19:34.732Z,0.4
2023-12-30T16:20:51.003Z,1
2023-12-30T16:22:07.000Z,1
2023-12-30T16:23:23.000Z,1.8
2023-12-30T16:24:39.000Z,0.6
2023-12-30T16:25:56.000Z,1.2
2023-12-30T16:27:12.000Z,0.7
2023-12-30T16:28:28.000Z,1
2023-12-30T16:29:44.000Z,0.9
2023-12-30T16:31:00.390Z,1
2023-12-30T16:32:16.676Z,2.1
2023-12-30T16:33:32.000Z,1.3
2023-12-30T16:34:49.000Z,1.6
2023-12-30T16:36:05.000Z,1.4
2023-12-30T16:37:21.853Z,1.5
2023-12-30T16:38:38.000Z,1.4
2023-12-30T16:39:54.000Z,0.9
2023-12-30T16:41:10.742Z,0.9
2023-12-30T16:42:27.016Z,0.9
2023-12-30T16:43:43.000Z,1
2023-12-30T16:44:59.602Z,1
2023-12-30T16:46:14.000Z,1
2023-12-30T16:47:31.000Z,0.7
2023-12-30T16:48:47.000Z,0.7
2023-12-30T16:50:03.000Z,0.7
2023-12-30T16:51:20.101Z,0.9
2023-12-30T16:52:36.397Z,1.3
2023-12-30T16:53:52.000Z,2.5
2023-12-30T16:55:08.000Z,4.7
2023-12-30T16:56:25.000Z,3.5
2023-12-30T16:57:41.000Z,5.9
2023-12-30T16:58:57.000Z,4.7
2023-12-30T17:00:14.000Z,2.7
2023-12-30T17:01:30.438Z,2.3
2023-12-30T17:02:45.735Z,1.8
2023-12-30T17:04:02.048Z,1.9
2023-12-30T17:05:18.000Z,1.3
2023-12-30T17:06:34.000Z,1.8
2023-12-30T17:07:50.932Z,1
2023-12-30T17:09:07.206Z,0.9
2023-12-30T17:10:23.491Z,0.6
2023-12-30T17:11:39.811Z,1.2
2023-12-30T17:12:56.100Z,1.1
2023-12-30T17:14:12.386Z,1.1
2023-12-30T17:15:28.000Z,0.7
2023-12-30T17:16:45.000Z,1
2023-12-30T17:18:01.000Z,1.2
2023-12-30T17:19:16.584Z,1.1
2023-12-30T17:20:32.000Z,0.8
2023-12-30T17:21:49.000Z,1.2
2023-12-30T17:23:05.000Z,1.3
2023-12-30T17:24:21.750Z,1.5
2023-12-30T17:25:38.059Z,1.5
2023-12-30T17:26:54.000Z,1.5
2023-12-30T17:28:10.000Z,2
2023-12-30T17:29:26.000Z,2.8
2023-12-30T17:30:43.000Z,3.2
2023-12-30T17:31:59.000Z,2.6